Last 24 Hours

Thomas Mountain

10 Minute Data | America/Los_Angeles
as of 5/3/26 11:12 AM PDT
Date & Time Temp (°F) Dew Pt (°F) RH (%) Wind Spd (mph) Wind Dir (°) Wind Gust (mph) Wind Gst Dir (°) Daily Max Temp (°F) Daily Min Temp (°F)
5/3/26 - 1110 64.4 39.8 40 14.3 SW | 231 21.8 SW | 220 65.5 58.4
5/3/26 - 1100 64.5 38.3 38 15.0 SW | 236 22.3 WSW | 242 65.5 58.4
5/3/26 - 1050 64.1 37.4 37 13.6 WSW | 241 23.7 WSW | 247 65.5 58.4
5/3/26 - 1040 64.7 37.4 36 12.2 SW | 232 21.7 SSW | 207 65.5 58.4
5/3/26 - 1030 62.8 36.8 38 11.9 SW | 228 18.7 SW | 225 64.4 58.4
5/3/26 - 1020 62.8 37.5 39 9.2 SW | 235 18.0 SW | 227 63.9 58.4
5/3/26 - 1010 62.0 34.4 35 6.5 SW | 220 13.4 SW | 235 63.4 58.4
5/3/26 - 1000 62.3 33.1 33 8.5 WSW | 246 15.1 WSW | 252 63.4 58.4
5/3/26 - 0950 62.4 33.3 34 8.0 SW | 216 11.9 S | 186 63.0 58.4
5/3/26 - 0940 61.9 32.1 32 7.6 SW | 225 14.5 WSW | 238 62.8 58.4
5/3/26 - 0930 62.2 30.9 31 9.7 SW | 220 15.1 SSW | 201 62.8 58.4
5/3/26 - 0920 62.0 29.3 29 9.3 SW | 230 15.3 SW | 227 62.8 58.4
5/3/26 - 0910 62.3 30.0 29 7.6 SW | 235 16.0 SW | 223 62.8 58.4
5/3/26 - 0900 62.0 29.6 29 7.8 SW | 228 12.1 WSW | 243 62.5 58.4
5/3/26 - 0850 61.9 29.7 29 5.2 WSW | 244 9.2 SSW | 197 62.4 58.4
5/3/26 - 0840 61.3 29.2 29 5.3 WSW | 242 7.9 SW | 227 62.0 58.4
5/3/26 - 0830 61.5 29.1 29 5.6 SSW | 212 10.9 SSW | 202 62.0 58.4
5/3/26 - 0820 61.4 29.2 29 4.2 SW | 220 9.4 SW | 215 62.0 58.4
5/3/26 - 0810 61.2 29.1 29 3.3 WSW | 254 5.9 W | 261 62.0 58.4
5/3/26 - 0800 61.1 29.0 30 3.1 WSW | 252 6.4 W | 262 62.0 58.4
5/3/26 - 0750 60.9 28.1 29 3.2 W | 277 6.2 W | 276 62.0 58.4
5/3/26 - 0740 60.3 27.4 28 1.1 S | 176 3.2 SSE | 168 62.0 58.4
5/3/26 - 0730 59.7 26.7 28 2.0 W | 266 4.3 W | 281 62.0 58.4
5/3/26 - 0720 60.0 26.8 28 3.0 WSW | 254 7.5 SW | 229 62.0 58.4
5/3/26 - 0710 60.2 27.0 28 3.2 WSW | 248 6.3 SW | 234 62.0 58.4
5/3/26 - 0700 59.9 26.3 27 1.6 WNW | 301 2.9 WNW | 288 62.0 58.4
5/3/26 - 0650 59.5 25.6 27 2.0 W | 260 3.4 W | 270 62.0 58.4
5/3/26 - 0640 59.1 25.8 28 3.6 WNW | 283 6.4 W | 266 62.0 58.4
5/3/26 - 0630 59.6 25.9 27 4.4 WNW | 298 6.9 WNW | 299 62.0 58.4
5/3/26 - 0620 59.8 25.4 27 3.3 NW | 316 5.1 NNW | 332 62.0 58.4
5/3/26 - 0610 59.7 25.1 26 2.9 WNW | 298 5.1 W | 267 62.0 58.4
5/3/26 - 0600 59.8 24.4 26 2.8 NW | 304 4.8 WNW | 299 62.0 58.4
5/3/26 - 0550 59.7 23.3 24 3.9 NNW | 347 5.3 N | 8 62.0 58.4
5/3/26 - 0540 58.9 22.7 25 3.8 NW | 316 4.7 NW | 310 62.0 58.4
5/3/26 - 0530 58.6 22.6 25 4.7 WNW | 283 8.1 W | 273 62.0 58.4
5/3/26 - 0520 58.7 22.8 25 5.0 W | 280 9.1 W | 274 62.0 58.4
5/3/26 - 0510 58.6 23.3 25 3.5 WNW | 298 7.4 W | 278 62.0 58.4
5/3/26 - 0500 58.9 23.8 26 3.7 WNW | 286 5.7 W | 277 62.0 58.8
5/3/26 - 0450 58.8 24.4 26 2.6 WNW | 289 4.3 WNW | 285 62.0 58.8
5/3/26 - 0440 58.9 24.4 26 3.4 W | 273 5.8 W | 268 62.0 58.8
5/3/26 - 0430 59.3 24.8 26 3.2 W | 275 5.3 W | 272 62.0 58.9
5/3/26 - 0420 59.7 25.0 26 3.8 W | 270 8.3 WSW | 254 62.0 59.4
5/3/26 - 0410 59.9 25.0 26 4.9 W | 278 10.1 W | 277 62.0 59.6
5/3/26 - 0400 60.0 24.8 26 2.8 WNW | 291 5.4 W | 279 62.0 59.6
5/3/26 - 0350 59.9 24.9 26 3.4 W | 278 6.1 WNW | 284 62.0 59.6
5/3/26 - 0340 60.0 24.4 25 3.7 WNW | 295 7.2 WSW | 253 62.0 59.6
5/3/26 - 0330 60.6 24.1 24 4.4 W | 280 7.8 WNW | 283 62.0 60.0
5/3/26 - 0320 60.7 24.4 25 6.1 WNW | 285 9.4 WNW | 287 62.0 60.0
5/3/26 - 0310 60.6 24.1 25 3.6 NW | 320 5.7 WNW | 288 62.0 60.0
5/3/26 - 0300 60.3 24.0 25 2.2 N | 358 4.4 N | 9 62.0 60.0
5/3/26 - 0250 60.7 24.0 24 1.5 NNW | 329 3.1 NW | 323 62.0 60.7
5/3/26 - 0240 61.0 23.6 24 2.2 WNW | 296 4.7 W | 281 62.0 60.7
5/3/26 - 0230 61.0 23.3 23 3.1 W | 280 5.5 W | 276 62.0 60.7
5/3/26 - 0220 61.1 23.4 23 4.5 W | 279 8.3 W | 277 62.0 60.7
5/3/26 - 0210 60.9 23.4 24 3.7 WNW | 288 6.4 W | 276 62.0 60.7
5/3/26 - 0200 61.0 23.4 23 5.0 WNW | 282 8.8 W | 272 62.0 60.7
5/3/26 - 0150 61.6 23.3 23 3.6 NW | 310 6.3 WNW | 302 62.0 61.5
5/3/26 - 0140 61.6 23.3 23 3.3 NNW | 332 5.5 NNW | 342 62.0 61.5
5/3/26 - 0130 61.8 23.1 23 3.9 NW | 304 7.2 W | 272 62.0 61.6
5/3/26 - 0120 61.9 22.8 22 2.6 NW | 316 3.3 WNW | 288 62.0 61.6
5/3/26 - 0110 61.8 22.8 22 2.9 NW | 324 3.4 NNW | 334 61.9 61.6
5/3/26 - 0100 61.6 23.0 23 3.1 NNW | 335 3.7 NW | 308 73.6 58.9
5/3/26 - 0050 61.4 22.7 22 2.9 NW | 308 4.3 WNW | 286 73.6 58.9
5/3/26 - 0040 61.5 23.0 23 3.1 WNW | 302 4.2 WNW | 291 73.6 58.9
5/3/26 - 0030 61.6 23.1 23 3.7 NW | 308 5.0 NW | 315 73.6 58.9
5/3/26 - 0020 61.6 23.4 23 2.6 WNW | 295 3.9 NW | 315 73.6 58.9
5/3/26 - 0010 61.8 23.4 23 2.4 W | 274 4.0 W | 280 73.6 58.9
5/3/26 - 0000 61.7 23.2 23 3.4 NW | 311 4.9 NW | 308 73.6 58.9
5/2/26 - 2350 61.6 23.5 23 3.7 NW | 318 5.0 NW | 310 73.6 58.9
5/2/26 - 2340 61.8 24.1 24 3.5 NW | 314 4.9 WNW | 284 73.6 58.9
5/2/26 - 2330 61.6 24.2 24 2.0 NW | 308 3.2 NW | 308 73.6 58.9
5/2/26 - 2320 61.7 24.1 24 2.9 WNW | 301 4.4 WNW | 292 73.6 58.9
5/2/26 - 2310 61.8 24.7 24 2.7 NW | 308 4.5 WNW | 297 73.6 58.9
5/2/26 - 2300 62.0 27.0 26 2.2 NW | 308 3.6 WNW | 300 73.6 58.9
5/2/26 - 2250 61.6 31.1 32 2.6 NNW | 330 4.2 NNW | 338 73.6 58.9
5/2/26 - 2240 61.2 34.9 37 4.0 NNW | 344 4.9 NNW | 340 73.6 58.9
5/2/26 - 2230 60.4 36.0 40 4.2 NNW | 346 5.6 N | 1 73.6 58.9
5/2/26 - 2220 60.4 35.4 39 4.8 N | 351 6.9 N | 3 73.6 58.9
5/2/26 - 2210 60.5 32.4 34 5.2 N | 354 6.1 N | 353 73.6 58.9
5/2/26 - 2200 60.6 31.9 34 4.5 N | 352 5.6 N | 2 73.6 58.9
5/2/26 - 2150 61.3 29.0 29 4.7 N | 355 5.6 N | 352 73.6 58.9
5/2/26 - 2140 61.9 28.4 28 3.9 NNW | 348 5.2 N | 1 73.6 58.9
5/2/26 - 2130 61.8 28.4 28 3.5 N | 357 5.6 NNE | 22 73.6 58.9
5/2/26 - 2120 62.8 28.3 27 4.2 N | 2 5.1 N | 0 73.6 58.9
5/2/26 - 2110 62.5 28.7 28 4.0 N | 4 5.2 N | 353 73.6 58.9
5/2/26 - 2100 62.2 29.4 29 5.1 N | 359 5.8 N | 0 73.6 58.9
5/2/26 - 2050 61.9 27.6 27 5.4 N | 2 7.1 N | 9 73.6 58.9
5/2/26 - 2040 61.9 26.3 26 3.5 NNW | 348 5.1 NNW | 347 73.6 58.9
5/2/26 - 2030 62.0 26.7 26 2.9 NNW | 348 6.0 NNW | 327 73.6 58.9
5/2/26 - 2020 61.9 27.1 26 3.3 WNW | 303 6.8 W | 276 73.6 58.9
5/2/26 - 2010 62.3 26.7 26 5.4 W | 277 8.6 WSW | 247 73.6 58.9
5/2/26 - 2000 62.6 27.3 26 7.3 W | 277 12.0 W | 278 73.6 58.9
5/2/26 - 1950 62.7 28.3 27 7.4 W | 280 13.8 WNW | 283 73.6 58.9
5/2/26 - 1940 62.9 29.1 28 7.5 W | 279 12.1 WNW | 284 73.6 58.9
5/2/26 - 1930 63.3 30.7 29 6.0 W | 266 11.0 W | 270 73.6 58.9
5/2/26 - 1920 63.8 31.8 30 8.0 W | 281 12.4 W | 281 73.6 58.9
5/2/26 - 1910 64.4 32.6 30 9.5 W | 272 14.2 WNW | 288 73.6 58.9
5/2/26 - 1900 65.0 32.5 30 9.6 W | 274 15.5 W | 273 73.6 58.9
5/2/26 - 1850 65.7 32.3 29 8.6 W | 269 14.6 WNW | 300 73.6 58.9
5/2/26 - 1840 66.1 32.6 29 10.9 W | 277 18.1 W | 272 73.6 58.9
5/2/26 - 1830 66.9 34.2 30 10.4 W | 264 17.3 W | 272 73.6 58.9
5/2/26 - 1820 67.6 35.4 30 10.6 WSW | 251 17.0 WSW | 258 73.6 58.9
5/2/26 - 1810 68.2 36.3 31 13.1 WSW | 248 19.4 SW | 234 73.6 58.9
5/2/26 - 1800 68.9 36.6 30 11.4 WSW | 252 17.8 WSW | 249 73.6 58.9
5/2/26 - 1750 70.0 37.4 30 8.5 W | 262 14.2 WSW | 249 73.6 58.9
5/2/26 - 1740 69.7 37.5 31 9.8 W | 261 17.8 WSW | 256 73.6 58.9
5/2/26 - 1730 70.3 37.9 31 8.7 WSW | 247 17.0 WSW | 248 73.6 58.9
5/2/26 - 1720 70.8 37.6 30 4.1 W | 260 10.1 W | 266 73.6 58.9
5/2/26 - 1710 71.0 38.3 30 3.2 NW | 320 12.3 WSW | 255 73.6 58.9
5/2/26 - 1700 71.0 38.8 31 7.7 WSW | 256 13.0 WSW | 255 73.6 58.9
5/2/26 - 1650 70.6 38.8 31 8.3 WNW | 282 18.1 WSW | 249 73.6 58.9
5/2/26 - 1640 71.7 38.6 30 4.9 SSW | 198 12.4 WSW | 246 73.6 58.9
5/2/26 - 1630 72.6 31.7 22 4.4 SW | 222 11.0 S | 178 73.6 58.9
5/2/26 - 1620 72.7 29.4 20 8.7 SSW | 200 16.9 SSW | 202 73.6 58.9
5/2/26 - 1610 72.3 29.7 21 6.8 SW | 217 14.8 SSW | 193 73.6 58.9
5/2/26 - 1600 72.2 26.8 18 9.4 SW | 217 16.3 SW | 232 73.6 58.9
5/2/26 - 1550 72.4 28.4 20 5.9 S | 189 17.6 WSW | 252 73.6 58.9
5/2/26 - 1540 71.2 24.0 17 4.8 WSW | 258 10.1 W | 278 73.6 58.9
5/2/26 - 1530 71.3 23.6 17 8.7 WSW | 246 14.8 SSW | 202 73.6 58.9
5/2/26 - 1520 72.5 24.0 16 9.8 SSW | 209 19.5 SW | 217 73.6 58.9
5/2/26 - 1510 72.6 24.2 16 8.7 SSW | 198 19.8 SSW | 200 73.4 58.9
5/2/26 - 1500 71.2 23.6 17 7.2 S | 188 15.0 S | 184 73.2 58.9
5/2/26 - 1450 71.7 23.9 16 10.1 SSW | 196 20.9 SSW | 196 73.2 58.9
5/2/26 - 1440 71.5 24.2 17 11.2 SSW | 208 21.6 SW | 215 73.2 58.9
5/2/26 - 1430 71.4 24.4 17 9.6 SSW | 201 17.0 SSW | 193 73.2 58.9
5/2/26 - 1420 71.9 25.3 17 9.4 S | 188 20.5 SSW | 194 73.2 58.9
5/2/26 - 1410 71.1 25.2 18 7.5 S | 181 18.6 S | 185 73.2 58.9
5/2/26 - 1400 72.0 25.7 18 9.9 S | 173 18.6 S | 174 73.2 58.9
5/2/26 - 1350 71.6 25.2 17 7.2 SSW | 212 18.3 SSW | 194 73.0 58.9
5/2/26 - 1340 71.2 24.8 17 6.4 SSE | 157 20.0 SSE | 166 73.0 58.9
5/2/26 - 1330 71.5 24.9 17 7.1 SSE | 152 16.9 SE | 138 73.0 58.9
5/2/26 - 1320 70.7 24.3 17 7.2 S | 179 18.0 SSW | 204 73.0 58.9
5/2/26 - 1310 71.6 24.8 17 6.8 SE | 146 14.8 SSE | 149 73.0 58.9
5/2/26 - 1300 72.1 25.6 17 6.6 S | 169 15.9 S | 178 73.0 58.9
5/2/26 - 1250 71.8 25.9 18 9.4 S | 184 20.9 SW | 223 72.6 58.9
5/2/26 - 1240 71.7 26.0 18 7.3 SSE | 166 16.1 S | 188 72.6 58.9
5/2/26 - 1230 70.4 24.6 18 5.2 SSE | 147 14.8 ESE | 113 72.6 58.9
5/2/26 - 1220 71.1 25.3 18 6.4 SE | 146 17.6 S | 171 72.6 58.9
5/2/26 - 1210 70.6 22.2 16 6.8 E | 96 14.0 E | 99 72.6 58.9
5/2/26 - 1200 71.9 24.7 17 4.0 SE | 146 8.8 ESE | 102 72.6 58.9
5/2/26 - 1150 70.4 23.1 17 6.4 ESE | 113 13.7 E | 98 71.7 58.9
5/2/26 - 1140 70.1 22.1 16 7.0 E | 94 13.7 ESE | 106 71.1 58.9
5/2/26 - 1130 69.2 21.5 16 7.3 ESE | 106 19.1 ENE | 72 70.7 58.9
5/2/26 - 1120 69.8 22.3 16 5.5 NE | 49 20.0 E | 96 70.7 58.9
5/2/26 - 1110 68.8 21.7 17 6.8 E | 87 15.4 ENE | 71 70.5 58.9
Max 72.7 39.8 40 15.0 - 23.7 - 73.6 61.6
Avg 64.4 27.8 26 5.8 - 10.7 - - -
Min 58.6 21.5 16 1.1 - 2.9 - 61.9 58.4